sensor_id;sensor_type;location;lat;lon;timestamp;pressure;altitude;pressure_sealevel;temperature;humidity
24620;BME280;12763;55.802;37.404;2022-11-23T00:01:38;98454.84;;;4.83;93.10
24620;BME280;12763;55.802;37.404;2022-11-23T00:04:11;98465.09;;;4.68;92.87
24620;BME280;12763;55.802;37.404;2022-11-23T00:06:38;98458.34;;;4.57;94.09
24620;BME280;12763;55.802;37.404;2022-11-23T00:09:05;98460.06;;;4.65;94.44
24620;BME280;12763;55.802;37.404;2022-11-23T00:11:33;98462.81;;;4.71;93.80
24620;BME280;12763;55.802;37.404;2022-11-23T00:14:04;98465.53;;;4.71;93.83
24620;BME280;12763;55.802;37.404;2022-11-23T00:16:30;98463.84;;;4.70;93.13
24620;BME280;12763;55.802;37.404;2022-11-23T00:19:03;98460.69;;;4.67;93.55
24620;BME280;12763;55.802;37.404;2022-11-23T00:21:33;98467.88;;;4.74;93.47
24620;BME280;12763;55.802;37.404;2022-11-23T00:24:00;98460.28;;;4.77;93.51
24620;BME280;12763;55.802;37.404;2022-11-23T00:26:27;98464.06;;;4.75;93.53
24620;BME280;12763;55.802;37.404;2022-11-23T00:28:59;98468.91;;;4.73;93.64
24620;BME280;12763;55.802;37.404;2022-11-23T00:31:28;98466.59;;;4.77;93.65
24620;BME280;12763;55.802;37.404;2022-11-23T00:34:03;98461.13;;;4.84;93.40
24620;BME280;12763;55.802;37.404;2022-11-23T00:36:33;98454.00;;;4.83;93.63
24620;BME280;12763;55.802;37.404;2022-11-23T00:38:59;98446.19;;;4.86;93.10
24620;BME280;12763;55.802;37.404;2022-11-23T00:41:26;98453.13;;;4.75;93.31
24620;BME280;12763;55.802;37.404;2022-11-23T00:44:02;98453.13;;;4.75;93.29
24620;BME280;12763;55.802;37.404;2022-11-23T00:46:29;98452.09;;;4.77;93.77
24620;BME280;12763;55.802;37.404;2022-11-23T00:48:56;98458.63;;;4.82;93.61
24620;BME280;12763;55.802;37.404;2022-11-23T00:51:30;98467.25;;;4.86;93.13
24620;BME280;12763;55.802;37.404;2022-11-23T00:53:58;98463.47;;;4.80;93.84
24620;BME280;12763;55.802;37.404;2022-11-23T00:56:25;98450.19;;;4.84;93.29
24620;BME280;12763;55.802;37.404;2022-11-23T00:58:56;98459.69;;;4.88;93.53
24620;BME280;12763;55.802;37.404;2022-11-23T01:01:27;98459.47;;;4.83;93.84
24620;BME280;12763;55.802;37.404;2022-11-23T01:03:56;98451.66;;;4.86;93.30
24620;BME280;12763;55.802;37.404;2022-11-23T01:06:25;98460.31;;;4.83;93.06
24620;BME280;12763;55.802;37.404;2022-11-23T01:09:01;98453.13;;;4.75;93.92
24620;BME280;12763;55.802;37.404;2022-11-23T01:11:30;98454.81;;;4.77;93.23
24620;BME280;12763;55.802;37.404;2022-11-23T01:14:00;98450.59;;;4.81;93.82
24620;BME280;12763;55.802;37.404;2022-11-23T01:16:29;98457.97;;;4.87;92.98
24620;BME280;12763;55.802;37.404;2022-11-23T01:18:59;98451.69;;;4.80;93.34
24620;BME280;12763;55.802;37.404;2022-11-23T01:21:27;98448.09;;;4.79;93.74
24620;BME280;12763;55.802;37.404;2022-11-23T01:23:58;98451.88;;;4.78;93.26
24620;BME280;12763;55.802;37.404;2022-11-23T01:26:25;98444.31;;;4.73;92.99
24620;BME280;12763;55.802;37.404;2022-11-23T01:28:55;98453.13;;;4.75;93.83
24620;BME280;12763;55.802;37.404;2022-11-23T01:31:28;98447.25;;;4.72;93.16
24620;BME280;12763;55.802;37.404;2022-11-23T01:34:04;98444.94;;;4.69;93.58
24620;BME280;12763;55.802;37.404;2022-11-23T01:36:43;98452.72;;;4.72;93.68
24620;BME280;12763;55.802;37.404;2022-11-23T01:39:12;98452.06;;;4.70;93.42
24620;BME280;12763;55.802;37.404;2022-11-23T01:41:41;98458.59;;;4.75;92.98
24620;BME280;12763;55.802;37.404;2022-11-23T01:44:26;98446.22;;;4.80;93.41
24620;BME280;12763;55.802;37.404;2022-11-23T01:47:06;98446.81;;;4.68;94.06
24620;BME280;12763;55.802;37.404;2022-11-23T01:49:48;98456.09;;;4.74;93.83
24620;BME280;12763;55.802;37.404;2022-11-23T01:52:23;98455.66;;;4.70;93.52
24620;BME280;12763;55.802;37.404;2022-11-23T01:54:53;98459.41;;;4.69;93.80
24620;BME280;12763;55.802;37.404;2022-11-23T01:57:32;98457.31;;;4.65;94.23
24620;BME280;12763;55.802;37.404;2022-11-23T02:00:04;98462.78;;;4.65;93.45
24620;BME280;12763;55.802;37.404;2022-11-23T02:02:42;98464.06;;;4.69;93.31
24620;BME280;12763;55.802;37.404;2022-11-23T02:05:18;98456.47;;;4.64;93.99
24620;BME280;12763;55.802;37.404;2022-11-23T02:07:48;98460.28;;;4.63;94.03
24620;BME280;12763;55.802;37.404;2022-11-23T02:10:16;98458.78;;;4.67;93.99
24620;BME280;12763;55.802;37.404;2022-11-23T02:12:45;98459.00;;;4.72;93.66
24620;BME280;12763;55.802;37.404;2022-11-23T02:15:33;98456.69;;;4.69;93.23
24620;BME280;12763;55.802;37.404;2022-11-23T02:18:24;98465.06;;;4.61;93.84
24620;BME280;12763;55.802;37.404;2022-11-23T02:20:54;98468.25;;;4.58;94.17
24620;BME280;12763;55.802;37.404;2022-11-23T02:23:32;98474.56;;;4.65;94.19
24620;BME280;12763;55.802;37.404;2022-11-23T02:26:27;98472.03;;;4.70;94.13
24620;BME280;12763;55.802;37.404;2022-11-23T02:29:03;98466.16;;;4.73;93.76
24620;BME280;12763;55.802;37.404;2022-11-23T02:31:40;98474.56;;;4.65;93.56
24620;BME280;12763;55.802;37.404;2022-11-23T02:34:09;98473.31;;;4.68;94.09
24620;BME280;12763;55.802;37.404;2022-11-23T02:39:29;98469.72;;;4.67;93.82
24620;BME280;12763;55.802;37.404;2022-11-23T02:41:59;98456.22;;;4.46;94.26
24620;BME280;12763;55.802;37.404;2022-11-23T02:47:06;98463.00;;;4.63;94.11
24620;BME280;12763;55.802;37.404;2022-11-23T02:49:40;98461.91;;;4.51;94.49
24620;BME280;12763;55.802;37.404;2022-11-23T02:52:10;98451.81;;;4.39;94.49
24620;BME280;12763;55.802;37.404;2022-11-23T02:54:37;98457.91;;;4.41;95.07
24620;BME280;12763;55.802;37.404;2022-11-23T02:57:09;98450.97;;;4.51;95.19
24620;BME280;12763;55.802;37.404;2022-11-23T02:59:41;98451.41;;;4.61;94.22
24620;BME280;12763;55.802;37.404;2022-11-23T03:02:08;98455.63;;;4.57;94.11
24620;BME280;12763;55.802;37.404;2022-11-23T03:04:34;98457.31;;;4.58;94.34
24620;BME280;12763;55.802;37.404;2022-11-23T03:07:04;98464.19;;;4.48;94.14
24620;BME280;12763;55.802;37.404;2022-11-23T03:09:34;98462.97;;;4.57;94.18
24620;BME280;12763;55.802;37.404;2022-11-23T03:12:01;98459.41;;;4.56;94.21
24620;BME280;12763;55.802;37.404;2022-11-23T03:14:28;98462.34;;;4.55;93.97
24620;BME280;12763;55.802;37.404;2022-11-23T03:17:00;98462.13;;;4.56;94.17
24620;BME280;12763;55.802;37.404;2022-11-23T03:19:35;98473.28;;;4.61;93.80
24620;BME280;12763;55.802;37.404;2022-11-23T03:22:08;98477.03;;;4.54;94.25
24620;BME280;12763;55.802;37.404;2022-11-23T03:24:36;98477.47;;;4.57;94.18
24620;BME280;12763;55.802;37.404;2022-11-23T03:27:04;98478.13;;;4.59;93.32
24620;BME280;12763;55.802;37.404;2022-11-23T03:29:33;98479.19;;;4.65;94.05
24620;BME280;12763;55.802;37.404;2022-11-23T03:32:08;98471.41;;;4.68;93.83
24620;BME280;12763;55.802;37.404;2022-11-23T03:34:34;98475.81;;;4.69;93.86
24620;BME280;12763;55.802;37.404;2022-11-23T03:37:04;98477.09;;;4.73;93.54
24620;BME280;12763;55.802;37.404;2022-11-23T03:39:33;98488.00;;;4.67;94.17
24620;BME280;12763;55.802;37.404;2022-11-23T03:42:12;98470.78;;;4.66;94.00
24620;BME280;12763;55.802;37.404;2022-11-23T03:44:46;98475.41;;;4.66;93.52
24620;BME280;12763;55.802;37.404;2022-11-23T03:47:14;98469.53;;;4.69;93.90
24620;BME280;12763;55.802;37.404;2022-11-23T03:49:41;98472.44;;;4.67;94.10
24620;BME280;12763;55.802;37.404;2022-11-23T03:52:12;98468.28;;;4.71;93.87
24620;BME280;12763;55.802;37.404;2022-11-23T03:54:38;98464.88;;;4.69;93.95
24620;BME280;12763;55.802;37.404;2022-11-23T03:57:06;98464.25;;;4.67;94.23
24620;BME280;12763;55.802;37.404;2022-11-23T03:59:33;98462.81;;;4.71;93.94
24620;BME280;12763;55.802;37.404;2022-11-23T04:01:59;98472.47;;;4.74;93.81
24620;BME280;12763;55.802;37.404;2022-11-23T04:04:29;98472.66;;;4.72;93.75
24620;BME280;12763;55.802;37.404;2022-11-23T04:07:30;98468.69;;;4.68;93.16
24620;BME280;12763;55.802;37.404;2022-11-23T04:10:01;98471.19;;;4.70;93.70
24620;BME280;12763;55.802;37.404;2022-11-23T04:12:52;98479.22;;;4.71;94.03
24620;BME280;12763;55.802;37.404;2022-11-23T04:15:19;98483.75;;;4.51;94.89
24620;BME280;12763;55.802;37.404;2022-11-23T04:17:46;98474.56;;;4.65;94.28
24620;BME280;12763;55.802;37.404;2022-11-23T04:20:13;98484.00;;;4.69;93.70
24620;BME280;12763;55.802;37.404;2022-11-23T04:22:52;98484.88;;;4.77;93.88
24620;BME280;12763;55.802;37.404;2022-11-23T04:25:21;98482.56;;;4.73;93.81
24620;BME280;12763;55.802;37.404;2022-11-23T04:27:50;98487.19;;;4.73;93.16
24620;BME280;12763;55.802;37.404;2022-11-23T04:30:16;98481.09;;;4.71;93.24
24620;BME280;12763;55.802;37.404;2022-11-23T04:32:44;98489.06;;;4.72;93.25
24620;BME280;12763;55.802;37.404;2022-11-23T04:35:11;98491.81;;;4.66;93.70
24620;BME280;12763;55.802;37.404;2022-11-23T04:37:42;98480.44;;;4.62;93.80
24620;BME280;12763;55.802;37.404;2022-11-23T04:40:10;98489.06;;;4.72;93.73
24620;BME280;12763;55.802;37.404;2022-11-23T04:43:03;98482.97;;;4.70;94.23
24620;BME280;12763;55.802;37.404;2022-11-23T04:45:37;98484.25;;;4.74;93.53
24620;BME280;12763;55.802;37.404;2022-11-23T04:48:09;98489.25;;;4.64;94.13
24620;BME280;12763;55.802;37.404;2022-11-23T04:50:37;98487.41;;;4.71;93.67
24620;BME280;12763;55.802;37.404;2022-11-23T04:53:04;98492.66;;;4.73;93.43
24620;BME280;12763;55.802;37.404;2022-11-23T04:55:39;98494.13;;;4.75;93.62
24620;BME280;12763;55.802;37.404;2022-11-23T04:58:06;98493.53;;;4.80;93.53
24620;BME280;12763;55.802;37.404;2022-11-23T05:00:36;98494.78;;;4.78;93.78
24620;BME280;12763;55.802;37.404;2022-11-23T05:03:04;98491.81;;;4.79;93.30
24620;BME280;12763;55.802;37.404;2022-11-23T05:05:36;98495.63;;;4.85;93.80
24620;BME280;12763;55.802;37.404;2022-11-23T05:08:07;98496.66;;;4.84;93.87
24620;BME280;12763;55.802;37.404;2022-11-23T05:10:57;98496.44;;;4.79;93.82
24620;BME280;12763;55.802;37.404;2022-11-23T05:13:27;98502.31;;;4.75;93.51
24620;BME280;12763;55.802;37.404;2022-11-23T05:15:56;98498.34;;;4.78;94.36
24620;BME280;12763;55.802;37.404;2022-11-23T05:18:29;98498.97;;;4.73;93.91
24620;BME280;12763;55.802;37.404;2022-11-23T05:20:55;98506.31;;;4.66;93.85
24620;BME280;12763;55.802;37.404;2022-11-23T05:23:22;98494.75;;;4.71;93.90
24620;BME280;12763;55.802;37.404;2022-11-23T05:25:51;98497.94;;;4.74;93.62
24620;BME280;12763;55.802;37.404;2022-11-23T05:28:20;98501.66;;;4.67;93.90
24620;BME280;12763;55.802;37.404;2022-11-23T05:30:56;98501.25;;;4.63;94.60
24620;BME280;12763;55.802;37.404;2022-11-23T05:33:23;98498.94;;;4.67;94.33
24620;BME280;12763;55.802;37.404;2022-11-23T05:35:53;98496.84;;;4.75;93.49
24620;BME280;12763;55.802;37.404;2022-11-23T05:38:28;98498.75;;;4.75;93.90
24620;BME280;12763;55.802;37.404;2022-11-23T05:41:01;98514.09;;;4.76;94.63
24620;BME280;12763;55.802;37.404;2022-11-23T05:43:28;98512.84;;;4.79;94.49
24620;BME280;12763;55.802;37.404;2022-11-23T05:45:57;98513.28;;;4.82;93.76
24620;BME280;12763;55.802;37.404;2022-11-23T05:48:24;98514.34;;;4.88;93.83
24620;BME280;12763;55.802;37.404;2022-11-23T05:50:59;98513.94;;;4.91;93.86
24620;BME280;12763;55.802;37.404;2022-11-23T05:53:31;98514.97;;;4.83;94.66
24620;BME280;12763;55.802;37.404;2022-11-23T05:56:11;98502.97;;;4.78;94.61
24620;BME280;12763;55.802;37.404;2022-11-23T05:58:48;98513.84;;;4.64;95.20
24620;BME280;12763;55.802;37.404;2022-11-23T06:01:15;98517.47;;;4.78;94.85
24620;BME280;12763;55.802;37.404;2022-11-23T06:03:42;98519.19;;;4.86;94.37
24620;BME280;12763;55.802;37.404;2022-11-23T06:06:09;98510.34;;;4.90;94.28
24620;BME280;12763;55.802;37.404;2022-11-23T06:08:39;98518.16;;;4.93;94.35
24620;BME280;12763;55.802;37.404;2022-11-23T06:11:07;98512.44;;;4.95;94.10
24620;BME280;12763;55.802;37.404;2022-11-23T06:13:46;98513.31;;;4.95;93.91
24620;BME280;12763;55.802;37.404;2022-11-23T06:16:14;98511.84;;;4.99;93.86
24620;BME280;12763;55.802;37.404;2022-11-23T06:18:52;98510.13;;;4.92;93.68
24620;BME280;12763;55.802;37.404;2022-11-23T06:21:19;98506.78;;;4.96;93.96
24620;BME280;12763;55.802;37.404;2022-11-23T06:23:46;98519.84;;;5.01;94.31
24620;BME280;12763;55.802;37.404;2022-11-23T06:26:13;98511.63;;;5.01;93.78
24620;BME280;12763;55.802;37.404;2022-11-23T06:28:40;98519.59;;;4.83;94.54
24620;BME280;12763;55.802;37.404;2022-11-23T06:31:09;98518.75;;;4.95;93.92
24620;BME280;12763;55.802;37.404;2022-11-23T06:33:40;98522.78;;;5.06;93.26
24620;BME280;12763;55.802;37.404;2022-11-23T06:36:09;98511.25;;;5.10;92.95
24620;BME280;12763;55.802;37.404;2022-11-23T06:38:48;98512.06;;;5.04;93.71
24620;BME280;12763;55.802;37.404;2022-11-23T06:41:20;98504.06;;;5.03;93.64
24620;BME280;12763;55.802;37.404;2022-11-23T06:43:46;98510.53;;;4.82;93.73
24620;BME280;12763;55.802;37.404;2022-11-23T06:46:20;98516.06;;;5.02;93.30
24620;BME280;12763;55.802;37.404;2022-11-23T06:48:47;98521.13;;;5.05;93.56
24620;BME280;12763;55.802;37.404;2022-11-23T06:51:15;98522.78;;;5.06;92.76
24620;BME280;12763;55.802;37.404;2022-11-23T06:53:43;98522.16;;;5.04;93.39
24620;BME280;12763;55.802;37.404;2022-11-23T06:56:16;98523.44;;;5.08;92.94
24620;BME280;12763;55.802;37.404;2022-11-23T06:58:44;98515.03;;;5.16;92.75
24620;BME280;12763;55.802;37.404;2022-11-23T07:01:16;98517.75;;;5.16;92.99
24620;BME280;12763;55.802;37.404;2022-11-23T07:03:54;98526.38;;;5.13;92.53
24620;BME280;12763;55.802;37.404;2022-11-23T07:06:31;98529.31;;;5.18;92.65
24620;BME280;12763;55.802;37.404;2022-11-23T07:09:08;98525.75;;;5.17;92.08
24620;BME280;12763;55.802;37.404;2022-11-23T07:11:58;98528.69;;;5.22;92.26
24620;BME280;12763;55.802;37.404;2022-11-23T07:14:31;98533.72;;;5.06;92.28
24620;BME280;12763;55.802;37.404;2022-11-23T07:16:57;98544.47;;;5.07;91.99
24620;BME280;12763;55.802;37.404;2022-11-23T07:19:24;98537.72;;;4.97;92.61
24620;BME280;12763;55.802;37.404;2022-11-23T07:22:02;98541.91;;;5.06;92.06
24620;BME280;12763;55.802;37.404;2022-11-23T07:24:32;98543.81;;;5.12;91.88
24620;BME280;12763;55.802;37.404;2022-11-23T07:27:01;98548.47;;;5.18;92.25
24620;BME280;12763;55.802;37.404;2022-11-23T07:29:31;98547.00;;;5.22;91.73
24620;BME280;12763;55.802;37.404;2022-11-23T07:32:18;98540.88;;;5.20;91.84
24620;BME280;12763;55.802;37.404;2022-11-23T07:34:45;98549.53;;;5.23;91.22
24620;BME280;12763;55.802;37.404;2022-11-23T07:37:13;98552.44;;;5.22;92.08
24620;BME280;12763;55.802;37.404;2022-11-23T07:39:44;98554.16;;;5.23;91.70
24620;BME280;12763;55.802;37.404;2022-11-23T07:42:11;98547.84;;;5.16;91.18
24620;BME280;12763;55.802;37.404;2022-11-23T07:44:39;98559.41;;;5.31;91.29
24620;BME280;12763;55.802;37.404;2022-11-23T07:47:08;98549.09;;;5.33;91.33
24620;BME280;12763;55.802;37.404;2022-11-23T07:49:37;98550.38;;;5.24;91.38
24620;BME280;12763;55.802;37.404;2022-11-23T07:52:10;98551.81;;;5.20;91.21
24620;BME280;12763;55.802;37.404;2022-11-23T07:54:39;98542.75;;;5.06;91.69
24620;BME280;12763;55.802;37.404;2022-11-23T07:57:08;98539.84;;;5.21;91.09
24620;BME280;12763;55.802;37.404;2022-11-23T07:59:35;98533.13;;;5.30;91.34
24620;BME280;12763;55.802;37.404;2022-11-23T08:02:14;98541.09;;;5.25;91.17
24620;BME280;12763;55.802;37.404;2022-11-23T08:04:41;98531.44;;;5.29;90.83
24620;BME280;12763;55.802;37.404;2022-11-23T08:07:07;98543.81;;;5.12;91.08
24620;BME280;12763;55.802;37.404;2022-11-23T08:09:40;98546.38;;;5.13;91.46
24620;BME280;12763;55.802;37.404;2022-11-23T08:12:11;98545.53;;;5.13;91.29
24620;BME280;12763;55.802;37.404;2022-11-23T08:14:41;98547.84;;;5.16;90.93
24620;BME280;12763;55.802;37.404;2022-11-23T08:17:08;98542.38;;;5.22;90.80
24620;BME280;12763;55.802;37.404;2022-11-23T08:19:35;98548.06;;;5.21;90.79
24620;BME280;12763;55.802;37.404;2022-11-23T08:22:04;98546.97;;;5.02;90.95
24620;BME280;12763;55.802;37.404;2022-11-23T08:24:36;98545.91;;;4.97;91.11
24620;BME280;12763;55.802;37.404;2022-11-23T08:27:03;98548.88;;;5.02;91.21
24620;BME280;12763;55.802;37.404;2022-11-23T08:29:29;98551.19;;;5.05;90.56
24620;BME280;12763;55.802;37.404;2022-11-23T08:31:55;98541.69;;;5.01;91.38
24620;BME280;12763;55.802;37.404;2022-11-23T08:34:25;98547.31;;;4.73;92.00
24620;BME280;12763;55.802;37.404;2022-11-23T08:36:58;98555.72;;;4.71;92.38
24620;BME280;12763;55.802;37.404;2022-11-23T08:39:25;98555.34;;;4.88;92.02
24620;BME280;12763;55.802;37.404;2022-11-23T08:41:51;98557.03;;;4.95;91.02
24620;BME280;12763;55.802;37.404;2022-11-23T08:44:18;98553.28;;;5.09;90.53
24620;BME280;12763;55.802;37.404;2022-11-23T08:46:44;98554.75;;;4.99;91.13
24620;BME280;12763;55.802;37.404;2022-11-23T08:49:12;98562.16;;;5.18;90.26
24620;BME280;12763;55.802;37.404;2022-11-23T08:51:41;98558.13;;;5.14;90.20
24620;BME280;12763;55.802;37.404;2022-11-23T08:54:11;98558.34;;;5.25;89.89
24620;BME280;12763;55.802;37.404;2022-11-23T08:56:38;98554.16;;;5.23;89.97
24620;BME280;12763;55.802;37.404;2022-11-23T08:59:05;98558.34;;;5.12;90.18
24620;BME280;12763;55.802;37.404;2022-11-23T09:01:32;98552.84;;;5.06;90.60
24620;BME280;12763;55.802;37.404;2022-11-23T09:04:07;98553.31;;;5.22;90.17
24620;BME280;12763;55.802;37.404;2022-11-23T09:06:34;98559.22;;;5.39;89.66
24620;BME280;12763;55.802;37.404;2022-11-23T09:09:04;98553.53;;;5.47;89.41
24620;BME280;12763;55.802;37.404;2022-11-23T09:11:30;98549.53;;;5.37;89.13
24620;BME280;12763;55.802;37.404;2022-11-23T09:13:56;98554.81;;;5.45;89.16
24620;BME280;12763;55.802;37.404;2022-11-23T09:16:27;98556.69;;;5.51;88.87
24620;BME280;12763;55.802;37.404;2022-11-23T09:18:56;98559.03;;;5.60;88.34
24620;BME280;12763;55.802;37.404;2022-11-23T09:21:23;98564.69;;;5.59;88.77
24620;BME280;12763;55.802;37.404;2022-11-23T09:23:57;98560.91;;;5.66;88.55
24620;BME280;12763;55.802;37.404;2022-11-23T09:26:23;98556.28;;;5.60;87.90
24620;BME280;12763;55.802;37.404;2022-11-23T09:28:55;98558.63;;;5.63;88.34
24620;BME280;12763;55.802;37.404;2022-11-23T09:31:22;98558.78;;;5.55;87.70
24620;BME280;12763;55.802;37.404;2022-11-23T09:33:51;98557.97;;;5.35;88.83
24620;BME280;12763;55.802;37.404;2022-11-23T09:36:19;98552.06;;;5.31;88.94
24620;BME280;12763;55.802;37.404;2022-11-23T09:38:45;98557.13;;;5.41;88.36
24620;BME280;12763;55.802;37.404;2022-11-23T09:44:28;98560.06;;;5.46;88.49
24620;BME280;12763;55.802;37.404;2022-11-23T09:50:11;98561.97;;;5.52;88.36
24620;BME280;12763;55.802;37.404;2022-11-23T09:52:44;98565.56;;;5.46;88.36
24620;BME280;12763;55.802;37.404;2022-11-23T09:55:20;98561.34;;;5.44;88.32
24620;BME280;12763;55.802;37.404;2022-11-23T09:57:48;98561.13;;;5.32;87.76
24620;BME280;12763;55.802;37.404;2022-11-23T10:00:37;98561.31;;;5.24;89.27
24620;BME280;12763;55.802;37.404;2022-11-23T10:03:13;98567.00;;;5.16;89.06
24620;BME280;12763;55.802;37.404;2022-11-23T10:06:12;98564.69;;;5.26;88.85
24620;BME280;12763;55.802;37.404;2022-11-23T10:09:00;98560.66;;;5.15;88.79
24620;BME280;12763;55.802;37.404;2022-11-23T10:17:01;98557.50;;;5.12;88.91
24620;BME280;12763;55.802;37.404;2022-11-23T10:22:35;98568.44;;;5.12;89.47
24620;BME280;12763;55.802;37.404;2022-11-23T10:25:16;98576.41;;;4.94;89.86
24620;BME280;12763;55.802;37.404;2022-11-23T10:27:46;98572.19;;;4.98;90.26
24620;BME280;12763;55.802;37.404;2022-11-23T10:30:18;98573.44;;;4.89;90.38
24620;BME280;12763;55.802;37.404;2022-11-23T10:35:39;98574.72;;;5.06;90.86
24620;BME280;12763;55.802;37.404;2022-11-23T10:38:13;98570.72;;;4.89;90.54
24620;BME280;12763;55.802;37.404;2022-11-23T10:41:11;98580.00;;;5.07;90.57
24620;BME280;12763;55.802;37.404;2022-11-23T10:49:23;98574.28;;;4.96;90.62
24620;BME280;12763;55.802;37.404;2022-11-23T10:54:47;98573.47;;;5.08;90.33
24620;BME280;12763;55.802;37.404;2022-11-23T10:57:34;98578.69;;;4.90;90.22
24620;BME280;12763;55.802;37.404;2022-11-23T11:02:39;98580.59;;;4.96;89.97
24620;BME280;12763;55.802;37.404;2022-11-23T11:05:13;98584.31;;;4.75;90.75
24620;BME280;12763;55.802;37.404;2022-11-23T11:07:40;98582.56;;;4.55;91.77
24620;BME280;12763;55.802;37.404;2022-11-23T11:10:31;98586.31;;;4.54;92.30
24620;BME280;12763;55.802;37.404;2022-11-23T11:12:58;98590.41;;;4.71;91.05
24620;BME280;12763;55.802;37.404;2022-11-23T11:15:25;98596.34;;;4.40;92.42
24620;BME280;12763;55.802;37.404;2022-11-23T11:17:56;98594.28;;;4.49;92.52
24620;BME280;12763;55.802;37.404;2022-11-23T11:22:54;98597.19;;;4.41;93.48
24620;BME280;12763;55.802;37.404;2022-11-23T11:25:36;98596.00;;;4.56;93.09
24620;BME280;12763;55.802;37.404;2022-11-23T11:28:16;98601.00;;;4.46;93.21
24620;BME280;12763;55.802;37.404;2022-11-23T11:30:58;98597.88;;;4.56;93.60
24620;BME280;12763;55.802;37.404;2022-11-23T11:33:46;98605.25;;;4.55;92.77
24620;BME280;12763;55.802;37.404;2022-11-23T11:36:16;98616.09;;;4.42;93.33
24620;BME280;12763;55.802;37.404;2022-11-23T11:38:47;98612.41;;;4.56;93.11
24620;BME280;12763;55.802;37.404;2022-11-23T11:41:18;98619.91;;;4.41;93.31
24620;BME280;12763;55.802;37.404;2022-11-23T11:44:18;98623.25;;;4.43;93.73
24620;BME280;12763;55.802;37.404;2022-11-23T11:46:50;98623.03;;;4.38;93.38
24620;BME280;12763;55.802;37.404;2022-11-23T11:49:34;98623.91;;;4.45;93.59
24620;BME280;12763;55.802;37.404;2022-11-23T11:52:08;98625.13;;;4.36;93.70
24620;BME280;12763;55.802;37.404;2022-11-23T11:54:47;98622.25;;;4.51;93.82
24620;BME280;12763;55.802;37.404;2022-11-23T11:57:21;98628.78;;;4.56;93.29
24620;BME280;12763;55.802;37.404;2022-11-23T11:59:53;98634.19;;;4.43;93.80
24620;BME280;12763;55.802;37.404;2022-11-23T12:02:35;98635.22;;;4.42;93.63
24620;BME280;12763;55.802;37.404;2022-11-23T12:07:54;98632.50;;;4.42;93.58
24620;BME280;12763;55.802;37.404;2022-11-23T12:13:27;98643.81;;;4.73;92.97
24620;BME280;12763;55.802;37.404;2022-11-23T12:21:03;98650.88;;;4.61;92.59
24620;BME280;12763;55.802;37.404;2022-11-23T12:29:11;98668.50;;;4.52;93.14
24620;BME280;12763;55.802;37.404;2022-11-23T12:31:53;98674.44;;;4.62;92.17
24620;BME280;12763;55.802;37.404;2022-11-23T12:34:53;98675.75;;;4.66;92.62
24620;BME280;12763;55.802;37.404;2022-11-23T12:40:26;98679.78;;;4.84;91.24
24620;BME280;12763;55.802;37.404;2022-11-23T12:43:49;98680.88;;;4.83;91.63
24620;BME280;12763;55.802;37.404;2022-11-23T12:51:17;98684.09;;;4.58;92.49
24620;BME280;12763;55.802;37.404;2022-11-23T12:54:09;98696.69;;;4.59;92.04
24620;BME280;12763;55.802;37.404;2022-11-23T12:56:46;98697.22;;;4.42;93.42
24620;BME280;12763;55.802;37.404;2022-11-23T12:59:15;98704.19;;;4.44;93.13
24620;BME280;12763;55.802;37.404;2022-11-23T13:01:50;98711.31;;;4.45;93.45
24620;BME280;12763;55.802;37.404;2022-11-23T13:07:40;98711.38;;;4.24;94.06
24620;BME280;12763;55.802;37.404;2022-11-23T13:10:19;98705.53;;;4.27;94.54
24620;BME280;12763;55.802;37.404;2022-11-23T13:12:56;98713.34;;;4.09;94.44
24620;BME280;12763;55.802;37.404;2022-11-23T13:23:37;98718.66;;;4.17;95.65
24620;BME280;12763;55.802;37.404;2022-11-23T13:26:24;98719.09;;;3.93;96.00
24620;BME280;12763;55.802;37.404;2022-11-23T13:28:52;98718.69;;;3.96;95.28
24620;BME280;12763;55.802;37.404;2022-11-23T13:31:24;98711.50;;;3.88;95.44
24620;BME280;12763;55.802;37.404;2022-11-23T13:33:53;98719.63;;;4.03;95.02
24620;BME280;12763;55.802;37.404;2022-11-23T13:38:58;98724.50;;;3.86;95.44
24620;BME280;12763;55.802;37.404;2022-11-23T13:43:57;98728.25;;;3.85;95.13
24620;BME280;12763;55.802;37.404;2022-11-23T13:46:26;98727.03;;;3.67;97.15
24620;BME280;12763;55.802;37.404;2022-11-23T13:48:57;98733.06;;;3.62;96.20
24620;BME280;12763;55.802;37.404;2022-11-23T13:51:31;98735.78;;;3.62;96.25
24620;BME280;12763;55.802;37.404;2022-11-23T13:54:20;98744.50;;;3.72;96.40
24620;BME280;12763;55.802;37.404;2022-11-23T13:57:01;98744.63;;;3.64;96.31
24620;BME280;12763;55.802;37.404;2022-11-23T13:59:31;98749.81;;;3.59;96.67
24620;BME280;12763;55.802;37.404;2022-11-23T14:04:36;98758.19;;;3.58;96.35
24620;BME280;12763;55.802;37.404;2022-11-23T14:07:23;98756.31;;;3.79;95.73
24620;BME280;12763;55.802;37.404;2022-11-23T14:15:24;98774.06;;;3.90;95.17
24620;BME280;12763;55.802;37.404;2022-11-23T14:23:59;98773.41;;;3.67;95.27
24620;BME280;12763;55.802;37.404;2022-11-23T14:26:41;98773.94;;;3.77;94.83
24620;BME280;12763;55.802;37.404;2022-11-23T14:32:19;98779.06;;;3.65;95.06
24620;BME280;12763;55.802;37.404;2022-11-23T14:43:20;98784.06;;;4.04;93.65
24620;BME280;12763;55.802;37.404;2022-11-23T14:45:50;98781.34;;;4.04;93.55
24620;BME280;12763;55.802;37.404;2022-11-23T14:48:35;98781.09;;;3.78;94.37
24620;BME280;12763;55.802;37.404;2022-11-23T14:51:13;98790.13;;;3.99;94.07
24620;BME280;12763;55.802;37.404;2022-11-23T14:53:49;98791.81;;;3.79;94.55
24620;BME280;12763;55.802;37.404;2022-11-23T14:56:35;98798.09;;;4.01;93.93
24620;BME280;12763;55.802;37.404;2022-11-23T14:59:09;98794.59;;;3.86;93.56
24620;BME280;12763;55.802;37.404;2022-11-23T15:01:47;98802.66;;;3.73;94.78
24620;BME280;12763;55.802;37.404;2022-11-23T15:04:36;98797.28;;;3.65;94.49
24620;BME280;12763;55.802;37.404;2022-11-23T15:07:15;98807.53;;;3.77;95.23
24620;BME280;12763;55.802;37.404;2022-11-23T15:10:02;98810.03;;;3.58;94.27
24620;BME280;12763;55.802;37.404;2022-11-23T15:12:42;98807.53;;;3.41;95.58